Dysart, Iowa
Current Conditions -  °F | °C
As of 7:15 AM on Monday 22 Dec 2014 (Local Time) from KVTI Reporting Station
Overcast Overcast  
Wind Chill: 30°   Ceiling: 1900
Heat Index: 38°   Visibility: 7mi
Dew Point: 33°   Wind: 10mph
Humidity: 83%   Direction: 140°SE
Pressure: 29.73"   Gusts: 18mph
Location:  42.17°N, 92.31°W
Report Text: KVTI 221315Z AUTO 14009G16KT 7SM OVC019 03/01 A2973 RMK AO2 T00310005
Loading
Personal Weather Stations






























Interactive Weather Map New forecast layout! Learn more

10-Day Weather Forecast

Advertisements
Track Severe Weather on mobile